Orto / Ocaso: 05:01 / 19:25 UTC (Datos para LEAX 25-05-2018)

[fuente: ADDS]

METAR:


LEMG 250430Z 26012KT 9999 SCT040 17/11 Q1012 TEMPO 4000 SHRA SCT030TCU =
LEGR 250430Z 00000KT 9999 SCT035 BKN075 14/11 Q1013 =
LEZL 250430Z 14005KT 9999 BKN012 15/14 Q1013 NOSIG =
LEAM 250430Z 12003KT 080V160 9999 FEW090 18/16 Q1010 =
LEBA 250430Z AUTO 22002KT 9999 FEW037/// SCT043/// 14/12 Q1013 =
LEJR 250430Z 12004KT 080V150 9999 FEW009 SCT020 15/15 Q1013 =
GEML 250430Z 25003KT 170V290 9999 FEW016 18/15 Q1013 =
LXGB 250350Z AUTO 25009KT 9999 // FEW028/// 17/13 Q1013 =

TAFOR:


TAF AMD LEMG 250120Z 2501/2524 28010KT 9999 SCT045 TX24/2512Z TN16/2505Z TEMPO 2501/2505 SHRA SCT030TCU SCT040 PROB30 TEMPO 2501/2504 4000 TSRA SCT025CB BKN035 PROB40 TEMPO 2508/2512 VRB03KT BECMG 2510/2514 21008KT BECMG 2518/2521 VRB03KT =
TAF LEGR 250200Z 2503/2603 25007KT 9999 SCT060 TX25/2515Z TN12/2505Z PROB40 TEMPO 2503/2507 4000 SHRA SCT025 SCT040TCU PROB30 TEMPO 2503/2507 TS SCT020 SCT035CB PROB30 TEMPO 2514/2519 27015G25KT =
TAF COR LEZL 250203Z 2503/2603 21006KT 9999 SCT030 TX23/2515Z TN14/2506Z PROB40 TEMPO 2503/2505 BKN010 TEMPO 2504/2515 4000 SHRA SCT015 SCT025TCU PROB30 TEMPO 2504/2513 3000 TSRA SCT015 BKN025CB =
TAF LEAM 250200Z 2503/2603 06006KT 9999 FEW030 TX25/2514Z TN17/2506Z BECMG 2507/2510 24018KT TEMPO 2510/2519 23020G32KT BECMG 2520/2523 28006KT =
TAF LEJR 242300Z 2500/2524 16006KT 9999 SCT040 TX23/2514Z TN13/2505Z PROB40 TEMPO 2504/2513 4000 SHRA SCT015 BKN030TCU BECMG 2507/2510 22010KT BECMG 2519/2522 16004KT =
TAF GEML 250200Z 2503/2603 27009KT 9999 SCT012 SCT020 TX22/2514Z TN18/2505Z PROB30 TEMPO 2503/2510 SCT010 BKN014 =

Recuerde que, aunque regularmente actualizada, la informacin meteorolgica aqu presentada no debe ser utilizada para la planificacin de vuelos. Si lo desea, puede consultar la informacin meteorolgica adecuada, tanto de aerdromos como en ruta, por las vas oficialmente establecidas en la legislacin -> AQU